Time;durP1;ratioP1;P1;durP2;ratioP2;P2;SDS_P1;SDS_P2;PMS_P1;PMS_P2;Temp;Humidity;BMP_temperature;BMP_pressure;BME280_temperature;BME280_humidity;BME280_pressure;Samples;Min_cycle;Max_cycle;Signal;HPM_P1;HPM_P2
2022/10/16 00:01:19;;;;;;;19.95;12.75;;;12.30;99.90;;;;;;4751059;30;20032;-75
2022/10/16 00:03:46;;;;;;;14.40;8.98;;;12.30;99.90;;;;;;4751931;30;20372;-75
2022/10/16 00:06:13;;;;;;;17.15;8.10;;;12.30;99.90;;;;;;4751675;30;20067;-75
2022/10/16 00:08:39;;;;;;;18.67;10.77;;;12.20;99.90;;;;;;4752001;30;20097;-76
2022/10/16 00:11:13;;;;;;;18.63;9.50;;;12.10;99.90;;;;;;4751858;30;20043;-76
2022/10/16 00:13:41;;;;;;;16.80;8.40;;;12.10;99.90;;;;;;4751239;30;20052;-76
2022/10/16 00:16:08;;;;;;;15.82;8.35;;;12.20;99.90;;;;;;4751398;30;20095;-76
2022/10/16 00:18:35;;;;;;;14.65;7.72;;;12.10;99.90;;;;;;4751814;30;20032;-76
2022/10/16 00:21:11;;;;;;;15.93;7.65;;;12.20;99.90;;;;;;4751895;30;20036;-75
2022/10/16 00:23:37;;;;;;;18.83;9.05;;;12.30;99.90;;;;;;4751936;30;20036;-75
2022/10/16 00:26:06;;;;;;;20.50;9.73;;;12.30;99.90;;;;;;4751678;30;20047;-74
2022/10/16 00:28:32;;;;;;;16.67;9.40;;;12.30;99.90;;;;;;4751781;30;20427;-76
2022/10/16 00:30:58;;;;;;;16.67;9.05;;;12.40;99.90;;;;;;4735872;30;20032;-75
2022/10/16 00:33:24;;;;;;;20.40;10.05;;;12.40;99.90;;;;;;4751768;30;20036;-75
2022/10/16 00:35:50;;;;;;;13.52;8.93;;;12.30;99.90;;;;;;4751623;30;20036;-76
2022/10/16 00:38:16;;;;;;;22.23;8.95;;;12.30;99.90;;;;;;4751494;30;20392;-75
2022/10/16 00:40:42;;;;;;;16.50;7.55;;;12.20;99.90;;;;;;4751650;30;20068;-75
2022/10/16 00:43:52;;;;;;;17.33;8.35;;;12.10;99.90;;;;;;4751483;30;20036;-75
2022/10/16 00:46:26;;;;;;;16.02;8.45;;;12.10;99.90;;;;;;4751451;30;20579;-75
2022/10/16 00:49:11;;;;;;;20.40;8.02;;;12.10;99.90;;;;;;4751268;30;20126;-75
2022/10/16 00:51:51;;;;;;;19.80;11.38;;;11.90;99.90;;;;;;4751529;30;20377;-75
2022/10/16 00:54:22;;;;;;;14.23;7.60;;;11.90;99.90;;;;;;4749531;30;20067;-75
2022/10/16 00:56:49;;;;;;;17.45;7.20;;;11.90;99.90;;;;;;4751617;30;20043;-75
2022/10/16 00:59:30;;;;;;;15.55;7.32;;;11.80;99.90;;;;;;4751466;30;20054;-75
2022/10/16 01:01:57;;;;;;;14.88;7.20;;;11.80;99.90;;;;;;4735789;30;20036;-76
2022/10/16 01:04:25;;;;;;;16.17;7.35;;;11.80;99.90;;;;;;4735615;30;20047;-75
2022/10/16 01:07:01;;;;;;;13.93;7.10;;;11.70;99.90;;;;;;4751078;30;20475;-75
2022/10/16 01:09:45;;;;;;;15.25;6.63;;;11.70;99.90;;;;;;4731627;30;20035;-74
2022/10/16 01:12:15;;;;;;;16.73;7.38;;;11.70;99.90;;;;;;4750676;30;20040;-76
2022/10/16 01:14:48;;;;;;;12.45;6.82;;;11.70;99.90;;;;;;4751042;30;20073;-75
2022/10/16 01:17:46;;;;;;;15.88;7.43;;;11.70;99.90;;;;;;4751254;30;20468;-76
2022/10/16 01:20:21;;;;;;;13.48;7.28;;;11.80;99.90;;;;;;4746814;30;20047;-75
2022/10/16 01:23:05;;;;;;;17.33;7.60;;;11.70;99.90;;;;;;4750735;30;20094;-76
2022/10/16 01:25:48;;;;;;;17.77;7.82;;;11.70;99.90;;;;;;4750566;30;20510;-75
2022/10/16 01:28:15;;;;;;;20.27;8.30;;;11.70;99.90;;;;;;4749698;30;20032;-75
2022/10/16 01:30:44;;;;;;;13.00;7.57;;;11.70;99.90;;;;;;4750577;30;20113;-74
2022/10/16 01:33:21;;;;;;;15.40;8.57;;;11.60;99.90;;;;;;4750410;30;20177;-75
2022/10/16 01:35:55;;;;;;;15.95;10.07;;;11.60;99.90;;;;;;4734927;30;20120;-76
2022/10/16 01:38:33;;;;;;;15.65;8.48;;;11.50;99.90;;;;;;4750594;30;20028;-75
2022/10/16 01:41:04;;;;;;;18.35;9.52;;;11.40;99.90;;;;;;4750688;30;20069;-75
2022/10/16 01:43:45;;;;;;;13.27;7.38;;;11.40;99.90;;;;;;4750530;30;20043;-74
2022/10/16 01:46:16;;;;;;;16.55;7.90;;;11.40;99.90;;;;;;4750395;30;20052;-74
2022/10/16 01:48:42;;;;;;;15.75;8.23;;;11.30;99.90;;;;;;4750643;30;20036;-75
2022/10/16 01:51:14;;;;;;;12.23;7.07;;;11.20;99.90;;;;;;4750395;30;20034;-75
2022/10/16 01:53:43;;;;;;;14.35;8.38;;;11.10;99.90;;;;;;4750610;30;20452;-76
2022/10/16 01:56:11;;;;;;;16.70;8.38;;;11.00;99.90;;;;;;4750484;30;20147;-74
2022/10/16 01:58:44;;;;;;;17.17;9.93;;;11.00;99.90;;;;;;4750275;30;20719;-74
2022/10/16 02:01:12;;;;;;;16.38;9.13;;;10.90;99.90;;;;;;4750199;30;20147;-74
2022/10/16 02:03:40;;;;;;;15.90;8.57;;;10.90;99.90;;;;;;4750451;30;20029;-75
2022/10/16 02:06:07;;;;;;;14.32;6.72;;;10.90;99.90;;;;;;4750259;30;20040;-75
2022/10/16 02:08:35;;;;;;;14.35;7.20;;;10.90;99.90;;;;;;4720237;30;20109;-76
2022/10/16 02:11:02;;;;;;;16.35;6.93;;;10.90;99.90;;;;;;4750250;30;20044;-75
2022/10/16 02:13:37;;;;;;;20.83;10.20;;;10.90;99.90;;;;;;4750180;30;20044;-74
2022/10/16 02:16:03;;;;;;;20.67;10.50;;;10.90;99.90;;;;;;4750107;30;20107;-75
2022/10/16 02:18:30;;;;;;;25.60;12.48;;;10.90;99.90;;;;;;4750235;30;20029;-75
2022/10/16 02:21:23;;;;;;;20.70;9.90;;;10.90;99.90;;;;;;4750369;30;20055;-75
2022/10/16 02:24:14;;;;;;;13.88;7.43;;;11.00;99.90;;;;;;4749913;30;20185;-76
2022/10/16 02:27:18;;;;;;;12.80;6.53;;;11.00;99.90;;;;;;4750204;30;20040;-76
2022/10/16 02:29:52;;;;;;;14.48;6.50;;;11.10;99.90;;;;;;4747190;30;20032;-75
2022/10/16 02:32:22;;;;;;;15.40;7.35;;;11.10;99.90;;;;;;4750279;30;20039;-75
2022/10/16 02:34:50;;;;;;;12.52;6.43;;;11.10;99.90;;;;;;4750208;30;20040;-75
2022/10/16 02:37:18;;;;;;;14.15;7.45;;;11.10;99.90;;;;;;4749941;30;20059;-75
2022/10/16 02:39:44;;;;;;;17.08;7.82;;;11.10;99.90;;;;;;4749941;30;20042;-75
2022/10/16 02:42:12;;;;;;;14.27;7.00;;;11.10;99.90;;;;;;4750167;30;20033;-75
2022/10/16 02:44:38;;;;;;;15.88;7.25;;;11.10;99.90;;;;;;4750090;30;20039;-75
2022/10/16 02:47:04;;;;;;;14.18;7.22;;;10.90;99.90;;;;;;4749931;30;20127;-74
2022/10/16 02:49:30;;;;;;;19.40;7.65;;;10.80;99.90;;;;;;4749994;30;20481;-76
2022/10/16 02:51:56;;;;;;;13.85;7.65;;;10.80;99.90;;;;;;4750429;30;20085;-75
2022/10/16 02:54:22;;;;;;;18.00;8.40;;;10.80;99.90;;;;;;4749953;30;20427;-75
2022/10/16 02:56:47;;;;;;;17.05;8.05;;;10.80;99.90;;;;;;4749839;30;20036;-75
2022/10/16 02:59:13;;;;;;;20.92;10.18;;;10.70;99.90;;;;;;4750126;30;20097;-74
2022/10/16 03:01:39;;;;;;;21.40;10.15;;;10.70;99.90;;;;;;4733952;30;20571;-75
2022/10/16 03:04:05;;;;;;;16.08;8.68;;;10.70;99.90;;;;;;4749532;30;20028;-75
2022/10/16 03:06:31;;;;;;;15.80;7.97;;;10.70;99.90;;;;;;4730360;30;20033;-75
2022/10/16 03:08:57;;;;;;;15.90;9.02;;;10.70;99.90;;;;;;4749345;30;20395;-75
2022/10/16 03:11:23;;;;;;;13.40;7.80;;;10.60;99.90;;;;;;4750502;30;20028;-76
2022/10/16 03:13:48;;;;;;;13.52;7.82;;;10.60;99.90;;;;;;4750805;30;20044;-76
2022/10/16 03:16:14;;;;;;;16.33;8.07;;;10.60;99.90;;;;;;4751051;30;20538;-74
2022/10/16 03:18:40;;;;;;;14.55;8.38;;;10.60;99.90;;;;;;4751274;30;20361;-75
2022/10/16 03:21:06;;;;;;;15.70;7.75;;;10.60;99.90;;;;;;4745038;30;20029;-76
2022/10/16 03:23:32;;;;;;;13.90;8.45;;;10.60;99.90;;;;;;4744769;30;20043;-75
2022/10/16 03:25:57;;;;;;;16.52;8.90;;;10.50;99.90;;;;;;4751210;30;20480;-75
2022/10/16 03:28:23;;;;;;;18.15;9.40;;;10.50;99.90;;;;;;4751149;30;20033;-74
2022/10/16 03:30:49;;;;;;;16.52;9.10;;;10.50;99.90;;;;;;4751119;30;20480;-74
2022/10/16 03:33:15;;;;;;;16.17;9.15;;;10.50;99.90;;;;;;4750898;30;20479;-75
2022/10/16 03:35:40;;;;;;;18.67;8.40;;;10.50;99.90;;;;;;4752534;30;20036;-75
2022/10/16 03:38:06;;;;;;;16.13;8.77;;;10.50;99.90;;;;;;4753907;30;20490;-75
2022/10/16 03:40:32;;;;;;;18.83;8.35;;;10.50;99.90;;;;;;4754250;30;20036;-75
2022/10/16 03:42:59;;;;;;;12.98;7.15;;;10.40;99.90;;;;;;4753771;30;20079;-75
2022/10/16 03:45:25;;;;;;;17.25;7.97;;;10.40;99.90;;;;;;4753490;30;20032;-75
2022/10/16 03:47:51;;;;;;;15.55;8.93;;;10.40;99.90;;;;;;4753638;30;20473;-74
2022/10/16 03:50:16;;;;;;;17.90;9.38;;;10.40;99.90;;;;;;4748542;30;20037;-75
2022/10/16 03:52:42;;;;;;;19.30;10.52;;;10.40;99.90;;;;;;4748905;30;20093;-75
2022/10/16 03:55:08;;;;;;;27.02;15.10;;;10.30;99.90;;;;;;4750569;30;20527;-76
2022/10/16 03:57:34;;;;;;;19.67;11.07;;;10.30;99.90;;;;;;4744232;30;20107;-75
2022/10/16 04:00:00;;;;;;;21.33;12.70;;;10.40;99.90;;;;;;4737255;30;20421;-75
2022/10/16 04:02:26;;;;;;;19.00;11.38;;;10.30;99.90;;;;;;4753063;30;20060;-75
2022/10/16 04:04:52;;;;;;;19.88;10.82;;;10.30;99.90;;;;;;4753389;30;20087;-74
2022/10/16 04:07:18;;;;;;;20.92;11.45;;;10.30;99.90;;;;;;4752666;30;20050;-75
2022/10/16 04:09:44;;;;;;;18.55;10.48;;;10.30;99.90;;;;;;4752528;30;20089;-75
2022/10/16 04:12:12;;;;;;;19.33;10.20;;;10.30;99.90;;;;;;4745404;30;20496;-74
2022/10/16 04:14:38;;;;;;;17.83;9.60;;;10.20;99.90;;;;;;4742614;30;20059;-75
2022/10/16 04:17:04;;;;;;;18.58;10.65;;;10.20;99.90;;;;;;4755868;30;20028;-76
2022/10/16 04:19:30;;;;;;;21.13;10.73;;;10.10;99.90;;;;;;4755081;30;20033;-76
2022/10/16 04:21:56;;;;;;;17.50;9.85;;;10.20;99.90;;;;;;4753161;30;20044;-75
2022/10/16 04:24:21;;;;;;;17.95;10.63;;;10.20;99.90;;;;;;4752898;30;20225;-75
2022/10/16 04:26:47;;;;;;;17.40;10.18;;;10.20;99.90;;;;;;4752837;30;20752;-76
2022/10/16 04:29:13;;;;;;;18.17;9.95;;;10.30;99.90;;;;;;4755230;30;20031;-75
2022/10/16 04:31:39;;;;;;;19.65;11.10;;;10.30;99.90;;;;;;4753556;30;20032;-75
2022/10/16 04:34:05;;;;;;;19.02;9.90;;;10.20;99.90;;;;;;4736465;30;20131;-75
2022/10/16 04:36:30;;;;;;;17.58;9.27;;;10.20;99.90;;;;;;4752773;30;20040;-76
2022/10/16 04:38:56;;;;;;;18.60;9.45;;;10.20;99.90;;;;;;4752924;30;20025;-75
2022/10/16 04:41:22;;;;;;;16.70;8.43;;;10.20;99.90;;;;;;4752871;30;20047;-75
2022/10/16 04:43:48;;;;;;;17.52;9.88;;;10.10;99.90;;;;;;4752830;30;20476;-75
2022/10/16 04:46:14;;;;;;;16.45;9.68;;;10.10;99.90;;;;;;4752308;30;20055;-75
2022/10/16 04:48:39;;;;;;;14.25;8.73;;;10.10;99.90;;;;;;4752326;30;20032;-75
2022/10/16 04:51:05;;;;;;;18.75;10.65;;;10.00;99.90;;;;;;4752507;30;20472;-75
2022/10/16 04:53:31;;;;;;;21.55;12.18;;;9.90;99.90;;;;;;4751917;30;20063;-75
2022/10/16 04:56:00;;;;;;;22.25;14.40;;;9.90;99.90;;;;;;4751191;30;20097;-76
2022/10/16 04:58:26;;;;;;;24.45;13.63;;;10.00;99.90;;;;;;4730682;30;20040;-76
2022/10/16 05:00:51;;;;;;;21.20;12.55;;;10.00;99.90;;;;;;4749126;30;20043;-75
2022/10/16 05:03:17;;;;;;;24.75;13.40;;;10.10;99.90;;;;;;4755281;30;20030;-74
2022/10/16 05:05:56;;;;;;;19.85;12.68;;;10.10;99.90;;;;;;4760300;30;20028;-74
2022/10/16 05:08:22;;;;;;;19.90;12.43;;;10.00;99.90;;;;;;4754937;30;20036;-75
2022/10/16 05:10:48;;;;;;;20.55;12.25;;;10.00;99.90;;;;;;4756075;30;20097;-75
2022/10/16 05:13:13;;;;;;;20.27;11.32;;;10.00;99.90;;;;;;4770214;24;20058;-75
2022/10/16 05:15:39;;;;;;;20.05;10.27;;;10.00;99.90;;;;;;4752887;29;20043;-75
2022/10/16 05:18:05;;;;;;;18.15;9.15;;;10.40;99.90;;;;;;4772806;29;20051;-74
2022/10/16 05:20:31;;;;;;;16.95;9.73;;;10.90;99.90;;;;;;4774502;29;20056;-75
2022/10/16 05:22:57;;;;;;;16.40;9.23;;;11.20;99.90;;;;;;4772989;29;20518;-75
2022/10/16 05:25:23;;;;;;;13.10;7.93;;;11.60;99.90;;;;;;4787485;29;20118;-75
2022/10/16 05:27:50;;;;;;;16.25;8.48;;;12.00;99.90;;;;;;4796222;24;20035;-75
2022/10/16 05:30:17;;;;;;;16.15;8.45;;;12.60;99.90;;;;;;4742887;30;20083;-76
2022/10/16 05:32:48;;;;;;;21.63;8.35;;;13.00;99.90;;;;;;4753793;30;20036;-75
2022/10/16 05:35:15;;;;;;;12.57;8.13;;;13.50;99.90;;;;;;4751944;30;20032;-74
2022/10/16 05:37:41;;;;;;;15.98;8.57;;;13.90;99.90;;;;;;4755360;30;20032;-74
2022/10/16 05:40:08;;;;;;;19.90;9.75;;;14.20;99.90;;;;;;4762282;30;20299;-75
2022/10/16 05:42:33;;;;;;;15.85;8.45;;;14.20;99.90;;;;;;4741021;30;20181;-75
2022/10/16 05:44:59;;;;;;;12.23;7.40;;;14.60;99.90;;;;;;4751861;30;20101;-75
2022/10/16 05:47:25;;;;;;;11.23;7.22;;;14.90;99.90;;;;;;4761380;30;20039;-75
2022/10/16 05:49:51;;;;;;;18.00;9.02;;;14.60;99.90;;;;;;4753721;30;20029;-75
2022/10/16 05:52:17;;;;;;;16.65;9.32;;;14.00;99.90;;;;;;4751577;30;20107;-75
2022/10/16 05:54:43;;;;;;;17.73;8.93;;;13.60;99.90;;;;;;4751785;30;20511;-76
2022/10/16 05:57:09;;;;;;;14.43;8.93;;;13.40;99.90;;;;;;4751494;30;20020;-75
2022/10/16 05:59:35;;;;;;;16.67;9.10;;;13.10;99.90;;;;;;4751462;30;20133;-76
2022/10/16 06:02:01;;;;;;;13.65;8.77;;;13.10;99.90;;;;;;4752188;30;20518;-75
2022/10/16 06:04:27;;;;;;;15.20;9.32;;;12.90;99.90;;;;;;4751493;30;20044;-75
2022/10/16 06:06:53;;;;;;;16.70;8.30;;;12.80;99.90;;;;;;4751687;30;20102;-75
2022/10/16 06:09:18;;;;;;;19.45;9.18;;;12.90;99.90;;;;;;4751567;30;20064;-74
2022/10/16 06:11:44;;;;;;;15.75;9.07;;;12.90;99.90;;;;;;4752678;30;20036;-75
2022/10/16 06:14:10;;;;;;;18.67;9.75;;;13.00;99.90;;;;;;4749567;30;20039;-76
2022/10/16 06:16:37;;;;;;;19.02;10.55;;;13.00;99.90;;;;;;4731138;30;20036;-76
2022/10/16 06:19:09;;;;;;;19.50;10.13;;;13.10;99.90;;;;;;4745025;30;20673;-75
2022/10/16 06:21:35;;;;;;;20.75;12.80;;;13.10;99.90;;;;;;4739736;30;20847;-75
2022/10/16 06:24:01;;;;;;;21.17;13.10;;;13.20;99.90;;;;;;4742671;30;20025;-76
2022/10/16 06:26:29;;;;;;;25.98;14.73;;;13.10;99.90;;;;;;4745315;30;20054;-75
2022/10/16 06:28:56;;;;;;;21.88;14.00;;;13.20;99.90;;;;;;4732707;30;20063;-75
2022/10/16 06:31:27;;;;;;;27.17;16.48;;;13.30;99.90;;;;;;4733541;30;20033;-75
2022/10/16 06:33:53;;;;;;;25.92;16.10;;;13.20;99.90;;;;;;4738143;30;20031;-75
2022/10/16 06:36:20;;;;;;;25.52;15.80;;;13.30;99.90;;;;;;4746554;30;20038;-76
2022/10/16 06:38:46;;;;;;;31.20;16.60;;;13.30;99.90;;;;;;4728170;30;20041;-75
2022/10/16 06:41:18;;;;;;;27.02;17.10;;;13.40;99.90;;;;;;4741433;30;20040;-75
2022/10/16 06:43:45;;;;;;;26.02;15.98;;;13.50;99.90;;;;;;4737702;30;20079;-76
2022/10/16 06:46:13;;;;;;;29.42;16.00;;;13.70;99.90;;;;;;4737352;30;20535;-72
2022/10/16 06:48:39;;;;;;;21.73;14.52;;;13.70;99.90;;;;;;4736111;30;20365;-74
2022/10/16 06:51:16;;;;;;;35.35;16.90;;;13.70;99.90;;;;;;4737245;30;20087;-76
2022/10/16 06:53:54;;;;;;;27.13;14.75;;;13.90;99.90;;;;;;4741439;30;20036;-76
2022/10/16 06:56:23;;;;;;;24.20;13.95;;;13.90;99.90;;;;;;4724260;30;20084;-76
2022/10/16 06:58:50;;;;;;;36.83;15.88;;;14.00;99.90;;;;;;4738626;30;20120;-75
2022/10/16 07:01:17;;;;;;;33.67;15.10;;;14.10;99.90;;;;;;4741201;30;20033;-76
2022/10/16 07:03:45;;;;;;;23.67;14.32;;;14.20;99.90;;;;;;4750565;30;20070;-76
2022/10/16 07:06:13;;;;;;;27.63;15.30;;;14.10;99.90;;;;;;4749984;30;20195;-76
2022/10/16 07:08:41;;;;;;;29.23;16.25;;;14.40;99.90;;;;;;4747179;30;20385;-75
2022/10/16 07:11:11;;;;;;;26.50;15.20;;;14.40;99.90;;;;;;4752303;30;20032;-75
2022/10/16 07:13:39;;;;;;;27.65;16.30;;;14.50;99.90;;;;;;4737852;30;20048;-75
2022/10/16 07:16:12;;;;;;;25.45;15.35;;;14.50;99.90;;;;;;4753606;30;20044;-76
2022/10/16 07:18:40;;;;;;;25.33;14.13;;;14.20;99.90;;;;;;4753792;30;20040;-75
2022/10/16 07:21:11;;;;;;;22.15;13.23;;;14.40;99.90;;;;;;4754305;30;20039;-76
2022/10/16 07:23:38;;;;;;;22.73;15.02;;;14.40;99.90;;;;;;4749826;30;20541;-77
2022/10/16 07:26:04;;;;;;;22.92;14.82;;;14.60;99.90;;;;;;4751616;30;20051;-76
2022/10/16 07:28:31;;;;;;;25.27;15.43;;;14.60;99.90;;;;;;4753468;30;20041;-76
2022/10/16 07:31:06;;;;;;;30.88;16.63;;;14.70;99.90;;;;;;4753763;30;20404;-76
2022/10/16 07:33:33;;;;;;;31.48;15.70;;;14.40;99.90;;;;;;4754177;30;20384;-75
2022/10/16 07:35:59;;;;;;;24.60;14.13;;;14.40;99.90;;;;;;4754142;30;20115;-76
2022/10/16 07:38:25;;;;;;;23.23;12.75;;;14.80;99.90;;;;;;4754204;30;20539;-75
2022/10/16 07:41:03;;;;;;;21.98;14.10;;;14.90;99.90;;;;;;4753828;30;20051;-76
2022/10/16 07:43:29;;;;;;;25.13;11.90;;;14.90;99.90;;;;;;4753704;30;20515;-76
2022/10/16 07:45:56;;;;;;;25.38;12.80;;;15.10;99.90;;;;;;4735083;30;20048;-76
2022/10/16 07:48:23;;;;;;;18.45;12.55;;;15.10;99.90;;;;;;4752377;30;20403;-76
2022/10/16 07:50:49;;;;;;;21.98;12.10;;;15.40;99.90;;;;;;4751367;30;20059;-76
2022/10/16 07:53:15;;;;;;;20.35;12.23;;;15.40;99.90;;;;;;4749933;30;20028;-76
2022/10/16 07:55:41;;;;;;;18.75;11.30;;;15.50;99.90;;;;;;4753344;30;20499;-75
2022/10/16 07:58:07;;;;;;;20.88;12.43;;;15.60;99.90;;;;;;4753326;30;20044;-76
2022/10/16 08:00:33;;;;;;;20.42;11.90;;;15.70;99.90;;;;;;4753741;30;20033;-76
2022/10/16 08:03:00;;;;;;;17.20;11.05;;;15.90;99.90;;;;;;4753512;30;20032;-76
2022/10/16 08:05:30;;;;;;;17.45;10.35;;;15.80;99.90;;;;;;4753372;30;20115;-76
2022/10/16 08:07:57;;;;;;;27.27;10.43;;;15.90;99.90;;;;;;4753184;30;20070;-76
2022/10/16 08:10:25;;;;;;;17.58;10.25;;;16.00;99.90;;;;;;4753467;30;20028;-76
2022/10/16 08:12:51;;;;;;;16.58;9.27;;;16.10;99.90;;;;;;4753519;30;20025;-77
2022/10/16 08:15:18;;;;;;;19.30;10.68;;;16.20;99.90;;;;;;4760632;30;20490;-76
2022/10/16 08:17:44;;;;;;;15.35;9.25;;;16.20;99.90;;;;;;4758626;30;20040;-76
2022/10/16 08:20:11;;;;;;;29.50;9.82;;;16.30;99.90;;;;;;4741795;30;20092;-76
2022/10/16 08:22:36;;;;;;;17.95;10.00;;;16.30;99.90;;;;;;4751471;30;20052;-76
2022/10/16 08:25:02;;;;;;;17.85;9.80;;;16.40;99.90;;;;;;4753010;30;20035;-76
2022/10/16 08:27:34;;;;;;;16.80;10.00;;;16.50;99.90;;;;;;4752340;30;20063;-76
2022/10/16 08:30:00;;;;;;;23.77;11.10;;;16.50;99.90;;;;;;4752645;30;20102;-75
2022/10/16 08:32:26;;;;;;;18.60;10.13;;;16.70;99.90;;;;;;4736949;30;20036;-77
2022/10/16 08:34:52;;;;;;;17.75;9.65;;;16.70;99.90;;;;;;4752940;30;20029;-76
2022/10/16 08:37:20;;;;;;;15.77;8.98;;;16.80;99.90;;;;;;4752971;30;20032;-76
2022/10/16 08:39:46;;;;;;;16.95;9.55;;;16.80;99.90;;;;;;4736547;30;20171;-76
2022/10/16 08:42:24;;;;;;;17.95;10.57;;;16.80;99.90;;;;;;4736856;30;20124;-74
2022/10/16 08:45:02;;;;;;;17.38;9.02;;;16.90;99.90;;;;;;4752773;30;20085;-74
2022/10/16 08:48:05;;;;;;;17.27;8.82;;;17.10;99.90;;;;;;4752928;30;20058;-74
2022/10/16 08:50:33;;;;;;;;;;;17.30;99.90;;;;;;4725343;30;20127;-74
2022/10/16 08:52:59;;;;;;;19.00;10.00;;;17.30;99.90;;;;;;4752989;30;20464;-74
2022/10/16 08:55:49;;;;;;;15.35;9.52;;;17.30;99.90;;;;;;4752756;30;20031;-74
2022/10/16 08:58:20;;;;;;;18.55;9.82;;;17.30;99.90;;;;;;4752109;30;20563;-73
2022/10/16 09:00:49;;;;;;;18.00;8.97;;;17.40;99.90;;;;;;4751325;30;20032;-74
2022/10/16 09:03:36;;;;;;;17.17;10.32;;;17.50;99.90;;;;;;4749987;30;20283;-73
2022/10/16 09:06:22;;;;;;;15.70;8.77;;;17.70;99.90;;;;;;4752426;30;20052;-73
2022/10/16 09:09:17;;;;;;;20.00;9.98;;;17.70;99.90;;;;;;4748015;30;20084;-74
2022/10/16 09:11:52;;;;;;;15.15;9.82;;;17.80;99.90;;;;;;4697403;30;20251;-74
2022/10/16 09:14:47;;;;;;;18.52;9.43;;;17.90;99.90;;;;;;4738093;30;20025;-74
2022/10/16 09:17:44;;;;;;;15.75;9.07;;;17.80;99.90;;;;;;4727236;30;20045;-74
2022/10/16 09:20:24;;;;;;;19.48;9.38;;;17.90;99.90;;;;;;4699753;30;20201;-75
2022/10/16 09:23:12;;;;;;;13.70;8.50;;;18.10;99.90;;;;;;4709267;30;20045;-77
2022/10/16 09:25:41;;;;;;;17.25;8.70;;;18.20;99.90;;;;;;4684050;30;20037;-73
2022/10/16 09:28:09;;;;;;;13.82;7.85;;;18.20;99.90;;;;;;4713998;30;20053;-74
2022/10/16 09:30:35;;;;;;;15.35;9.23;;;18.30;99.90;;;;;;4711921;30;20053;-74
2022/10/16 09:33:02;;;;;;;15.30;9.43;;;18.50;99.90;;;;;;4711018;30;20044;-73
2022/10/16 09:35:43;;;;;;;14.88;8.85;;;18.60;99.90;;;;;;4708832;30;20504;-73
2022/10/16 09:38:31;;;;;;;16.60;9.15;;;18.70;99.90;;;;;;4714477;30;20188;-74
2022/10/16 09:40:59;;;;;;;17.17;8.45;;;18.80;99.90;;;;;;4718215;24;20079;-74
2022/10/16 09:43:30;;;;;;;13.73;8.38;;;18.70;99.90;;;;;;4749439;30;20048;-74
2022/10/16 09:46:01;;;;;;;16.65;8.45;;;18.70;99.90;;;;;;4759457;30;20040;-72
2022/10/16 09:48:49;;;;;;;13.70;7.82;;;18.90;99.90;;;;;;4767397;30;20107;-69
2022/10/16 09:51:23;;;;;;;21.90;13.45;;;18.90;99.90;;;;;;4769246;30;20039;-70
2022/10/16 09:53:49;;;;;;;18.83;9.68;;;18.80;99.90;;;;;;4769409;30;20119;-70
2022/10/16 09:56:27;;;;;;;15.23;7.82;;;19.00;99.90;;;;;;4769763;30;20448;-70
2022/10/16 09:58:59;;;;;;;16.63;8.70;;;18.90;99.90;;;;;;4747459;30;20076;-69
2022/10/16 10:01:31;;;;;;;16.23;8.43;;;18.60;99.90;;;;;;4764064;30;20040;-69
2022/10/16 10:04:00;;;;;;;;;;;18.70;99.90;;;;;;4758551;30;20062;-81
2022/10/16 10:06:30;;;;;;;15.52;7.22;;;18.80;99.90;;;;;;4769429;30;20262;-68
2022/10/16 10:09:05;;;;;;;17.30;8.10;;;18.90;99.90;;;;;;4753395;30;20085;-69
2022/10/16 10:11:41;;;;;;;17.98;7.82;;;18.80;99.90;;;;;;4768951;30;20043;-68
2022/10/16 10:14:36;;;;;;;17.52;7.93;;;19.00;99.90;;;;;;4768868;30;20036;-69
2022/10/16 10:17:17;;;;;;;20.33;8.05;;;19.00;99.90;;;;;;4769219;30;20031;-69
2022/10/16 10:19:54;;;;;;;12.98;7.75;;;19.10;99.90;;;;;;4755827;30;20036;-69
2022/10/16 10:22:26;;;;;;;12.93;6.93;;;19.00;99.90;;;;;;4768744;30;20394;-68
2022/10/16 10:25:10;;;;;;;13.55;8.00;;;19.00;99.90;;;;;;4769172;30;20023;-69
2022/10/16 10:28:10;;;;;;;15.38;7.40;;;19.00;99.90;;;;;;4769146;30;20122;-70
2022/10/16 10:31:09;;;;;;;11.27;7.15;;;19.00;99.90;;;;;;4768971;30;20039;-69
2022/10/16 10:33:52;;;;;;;15.35;7.78;;;18.90;99.90;;;;;;4768842;30;20085;-70
2022/10/16 10:36:24;;;;;;;17.17;7.15;;;19.00;99.90;;;;;;4768788;30;20035;-72
2022/10/16 10:38:56;;;;;;;14.30;7.43;;;19.10;99.90;;;;;;4769127;30;20043;-70
2022/10/16 10:41:42;;;;;;;11.52;7.22;;;19.00;99.90;;;;;;4768536;30;20527;-71
2022/10/16 10:44:19;;;;;;;14.70;7.57;;;19.10;99.90;;;;;;4760287;30;20046;-70
2022/10/16 10:46:53;;;;;;;18.35;8.27;;;19.20;99.90;;;;;;4772489;30;20036;-70
2022/10/16 10:49:48;;;;;;;15.82;8.23;;;19.40;99.90;;;;;;4772844;30;20036;-71
2022/10/16 10:52:38;;;;;;;20.00;7.47;;;19.50;99.90;;;;;;4772617;30;20468;-74
2022/10/16 10:55:30;;;;;;;14.40;7.75;;;19.30;99.90;;;;;;4772635;30;20040;-70
2022/10/16 10:58:22;;;;;;;18.77;10.73;;;19.50;99.90;;;;;;4746960;30;20048;-71
2022/10/16 11:01:13;;;;;;;14.73;6.97;;;19.70;99.90;;;;;;4772122;30;20097;-76
2022/10/16 11:03:57;;;;;;;21.63;9.55;;;19.70;99.90;;;;;;4772451;30;20490;-76
2022/10/16 11:06:45;;;;;;;13.52;8.65;;;19.80;99.90;;;;;;4769276;30;20483;-77
2022/10/16 11:09:29;;;;;;;16.20;8.93;;;19.80;99.90;;;;;;4762720;30;20028;-70
2022/10/16 11:12:17;;;;;;;15.93;7.22;;;19.90;99.90;;;;;;4759448;30;20060;-68
2022/10/16 11:14:50;;;;;;;12.95;6.68;;;19.70;99.90;;;;;;4737230;30;20424;-71
2022/10/16 11:17:29;;;;;;;15.60;7.00;;;19.90;99.90;;;;;;4751464;30;20052;-70
2022/10/16 11:20:15;;;;;;;11.32;6.38;;;19.90;99.90;;;;;;4755498;30;20032;-70
2022/10/16 11:22:50;;;;;;;11.95;6.90;;;19.90;99.90;;;;;;4752498;30;20070;-73
2022/10/16 11:25:26;;;;;;;13.10;7.03;;;20.10;99.90;;;;;;4752897;30;20249;-71
2022/10/16 11:27:55;;;;;;;12.98;7.20;;;20.20;99.90;;;;;;4754168;30;20120;-71
2022/10/16 11:30:26;;;;;;;14.48;6.25;;;20.20;99.90;;;;;;4752434;30;20101;-71
2022/10/16 11:33:09;;;;;;;14.25;6.55;;;20.30;99.90;;;;;;4753175;30;20039;-71
2022/10/16 11:35:48;;;;;;;14.07;7.03;;;20.40;99.90;;;;;;4760271;30;20035;-70
2022/10/16 11:38:30;;;;;;;11.10;6.03;;;20.40;99.90;;;;;;4749014;30;20042;-75
2022/10/16 11:41:19;;;;;;;14.02;7.13;;;20.40;99.90;;;;;;4757374;30;20033;-69
2022/10/16 11:44:03;;;;;;;17.25;7.28;;;20.30;99.90;;;;;;4752103;30;20048;-75
2022/10/16 11:46:32;;;;;;;13.20;7.30;;;20.30;99.90;;;;;;4756279;30;20025;-71
2022/10/16 11:49:15;;;;;;;16.13;6.95;;;20.20;99.90;;;;;;4757630;30;20028;-72
2022/10/16 11:51:48;;;;;;;10.32;6.25;;;20.20;99.90;;;;;;4754501;30;20217;-75
2022/10/16 11:54:24;;;;;;;13.30;6.22;;;20.30;99.90;;;;;;4753615;30;20527;-75
2022/10/16 11:56:58;;;;;;;9.95;5.93;;;20.40;99.90;;;;;;4753806;30;20119;-76
2022/10/16 11:59:43;;;;;;;11.80;6.25;;;20.40;99.90;;;;;;4760368;30;20032;-71
2022/10/16 12:02:28;;;;;;;15.52;6.90;;;20.30;99.90;;;;;;4770008;30;20050;-74
2022/10/16 12:05:27;;;;;;;10.43;6.28;;;20.20;99.90;;;;;;4742037;30;20475;-73
2022/10/16 12:08:15;;;;;;;10.57;5.85;;;20.30;99.90;;;;;;4767803;30;20031;-70
2022/10/16 12:10:43;;;;;;;13.15;6.95;;;20.30;99.90;;;;;;4737570;30;20044;-76
2022/10/16 12:13:31;;;;;;;12.13;7.28;;;20.30;99.90;;;;;;4752227;30;20032;-72
2022/10/16 12:16:12;;;;;;;17.58;6.90;;;20.30;99.90;;;;;;4754015;30;20412;-76
2022/10/16 12:18:48;;;;;;;13.27;7.32;;;20.20;99.90;;;;;;4754269;30;20085;-82
2022/10/16 12:21:18;;;;;;;14.70;6.53;;;20.20;99.90;;;;;;4759812;30;20028;-70
2022/10/16 12:23:55;;;;;;;10.68;6.63;;;20.20;99.90;;;;;;4757752;30;20121;-77
2022/10/16 12:26:39;;;;;;;12.82;6.78;;;20.40;99.90;;;;;;4739032;30;20036;-71
2022/10/16 12:29:14;;;;;;;12.68;6.65;;;20.40;99.90;;;;;;4738839;30;20035;-72
2022/10/16 12:31:46;;;;;;;9.82;6.18;;;20.40;99.90;;;;;;4754144;30;20165;-75
2022/10/16 12:34:21;;;;;;;13.18;6.30;;;20.40;99.90;;;;;;4754076;30;20388;-85
2022/10/16 12:36:48;;;;;;;12.52;7.13;;;20.40;99.90;;;;;;4753590;30;20123;-74
2022/10/16 12:39:25;;;;;;;10.43;6.15;;;20.50;99.90;;;;;;4755965;30;20036;-76
2022/10/16 12:42:05;;;;;;;11.10;7.07;;;20.50;99.90;;;;;;4751160;30;20048;-77
2022/10/16 12:44:36;;;;;;;14.98;6.13;;;20.50;99.90;;;;;;4751165;30;20105;-75
2022/10/16 12:47:02;;;;;;;13.68;7.18;;;20.60;99.90;;;;;;4750983;30;20098;-75
2022/10/16 12:49:28;;;;;;;16.08;8.00;;;20.60;99.90;;;;;;4751173;30;20097;-74
2022/10/16 12:51:55;;;;;;;17.88;8.65;;;20.60;99.90;;;;;;4751732;30;20365;-77
2022/10/16 12:54:29;;;;;;;11.95;6.28;;;20.70;99.90;;;;;;4754945;30;20024;-82
2022/10/16 12:57:10;;;;;;;12.35;6.30;;;20.80;99.90;;;;;;4751724;30;20096;-72
2022/10/16 12:59:58;;;;;;;13.10;7.15;;;20.70;99.90;;;;;;4751060;30;20040;-73